Terminal Aerodrome Forecast
Issued by NWS

Home | Current Version | Previous Version | Text Only | Print | Product List | Glossary On
Versions: 1 2 3 4 5 6 7 8 9 10 11 12 13 14
000
FTUS42 TJSJ 260531
TAFIST
TAF
TIST 260531Z 2606/2706 08009KT P6SM VCTS SCT022CB OVC060
      TEMPO 2606/2608 VRB15G22KT SHRA BKN025
     FM261300 11015G20KT P6SM VCSH SCT025 SCT035 SCT060
     FM262300 09010KT P6SM VCSH SCT025 SCT060=

USA.gov is the U.S. government's official web portal to all federal, state and local government web resources and services.